sensor_id;sensor_type;location;lat;lon;timestamp;pressure;altitude;pressure_sealevel;temperature;humidity
56604;BME280;42486;47.478;19.036;2023-03-18T00:01:57;100700.59;;;1.97;70.45
56604;BME280;42486;47.478;19.036;2023-03-18T00:05:00;100698.28;;;1.90;71.82
56604;BME280;42486;47.478;19.036;2023-03-18T00:08:03;100696.44;;;1.93;72.08
56604;BME280;42486;47.478;19.036;2023-03-18T00:11:06;100691.63;;;1.83;71.22
56604;BME280;42486;47.478;19.036;2023-03-18T00:14:09;100691.59;;;1.84;71.48
56604;BME280;42486;47.478;19.036;2023-03-18T00:17:12;100684.19;;;1.73;71.64
56604;BME280;42486;47.478;19.036;2023-03-18T00:20:16;100685.28;;;1.66;72.96
56604;BME280;42486;47.478;19.036;2023-03-18T00:23:19;100680.09;;;1.68;72.51
56604;BME280;42486;47.478;19.036;2023-03-18T00:26:24;100674.97;;;1.66;72.42
56604;BME280;42486;47.478;19.036;2023-03-18T00:29:26;100671.44;;;1.70;71.11
56604;BME280;42486;47.478;19.036;2023-03-18T00:32:29;100676.56;;;1.70;73.49
56604;BME280;42486;47.478;19.036;2023-03-18T00:35:33;100673.06;;;1.73;72.90
56604;BME280;42486;47.478;19.036;2023-03-18T00:38:37;100682.59;;;1.69;73.08
56604;BME280;42486;47.478;19.036;2023-03-18T00:41:40;100676.47;;;1.73;73.84
56604;BME280;42486;47.478;19.036;2023-03-18T00:44:43;100669.50;;;1.75;74.28
56604;BME280;42486;47.478;19.036;2023-03-18T00:47:46;100663.50;;;1.76;73.99
56604;BME280;42486;47.478;19.036;2023-03-18T00:50:50;100666.94;;;1.75;71.77
56604;BME280;42486;47.478;19.036;2023-03-18T00:53:54;100668.66;;;1.76;72.36
56604;BME280;42486;47.478;19.036;2023-03-18T00:56:57;100668.50;;;1.81;73.06
56604;BME280;42486;47.478;19.036;2023-03-18T00:59:59;100661.47;;;1.86;70.71
56604;BME280;42486;47.478;19.036;2023-03-18T01:03:03;100668.41;;;1.84;72.35
56604;BME280;42486;47.478;19.036;2023-03-18T01:06:05;100665.00;;;1.84;71.22
56604;BME280;42486;47.478;19.036;2023-03-18T01:09:08;100657.09;;;1.88;69.33
56604;BME280;42486;47.478;19.036;2023-03-18T01:12:14;100655.34;;;1.89;71.32
56604;BME280;42486;47.478;19.036;2023-03-18T01:15:18;100653.69;;;1.88;73.75
56604;BME280;42486;47.478;19.036;2023-03-18T01:18:21;100644.31;;;1.85;73.87
56604;BME280;42486;47.478;19.036;2023-03-18T01:21:25;100638.47;;;1.80;72.66
56604;BME280;42486;47.478;19.036;2023-03-18T01:24:28;100640.31;;;1.76;73.13
56604;BME280;42486;47.478;19.036;2023-03-18T01:27:31;100636.59;;;1.85;68.75
56604;BME280;42486;47.478;19.036;2023-03-18T01:30:33;100637.37;;;1.87;68.16
56604;BME280;42486;47.478;19.036;2023-03-18T01:33:36;100631.88;;;1.98;70.03
56604;BME280;42486;47.478;19.036;2023-03-18T01:36:39;100630.09;;;2.00;70.32
56604;BME280;42486;47.478;19.036;2023-03-18T01:39:42;100627.00;;;1.89;71.61
56604;BME280;42486;47.478;19.036;2023-03-18T01:42:46;100628.31;;;1.75;71.26
56604;BME280;42486;47.478;19.036;2023-03-18T01:45:51;100623.16;;;1.75;71.90
56604;BME280;42486;47.478;19.036;2023-03-18T01:48:56;100623.16;;;1.75;70.17
56604;BME280;42486;47.478;19.036;2023-03-18T01:52:03;100611.88;;;1.80;70.23
56604;BME280;42486;47.478;19.036;2023-03-18T01:55:08;100618.88;;;1.76;71.29
56604;BME280;42486;47.478;19.036;2023-03-18T01:58:24;100618.06;;;1.74;71.68
56604;BME280;42486;47.478;19.036;2023-03-18T02:01:33;100617.34;;;1.70;71.48
56604;BME280;42486;47.478;19.036;2023-03-18T02:04:44;100623.22;;;1.74;68.90
56604;BME280;42486;47.478;19.036;2023-03-18T02:07:48;100621.38;;;1.77;68.56
56604;BME280;42486;47.478;19.036;2023-03-18T02:10:52;100616.87;;;1.84;68.89
56604;BME280;42486;47.478;19.036;2023-03-18T02:13:54;100608.94;;;1.90;67.87
56604;BME280;42486;47.478;19.036;2023-03-18T02:16:59;100607.31;;;1.88;67.68
56604;BME280;42486;47.478;19.036;2023-03-18T02:20:27;100605.47;;;1.91;68.64
56604;BME280;42486;47.478;19.036;2023-03-18T02:29:34;100606.16;;;1.96;67.58
56604;BME280;42486;47.478;19.036;2023-03-18T02:32:38;100601.91;;;1.95;66.96
56604;BME280;42486;47.478;19.036;2023-03-18T02:35:43;100605.63;;;1.87;67.72
56604;BME280;42486;47.478;19.036;2023-03-18T02:38:47;100608.31;;;1.84;67.48
56604;BME280;42486;47.478;19.036;2023-03-18T02:41:50;100605.69;;;1.85;68.51
56604;BME280;42486;47.478;19.036;2023-03-18T02:44:53;100604.88;;;1.83;68.87
56604;BME280;42486;47.478;19.036;2023-03-18T02:47:56;100608.41;;;1.81;66.88
56604;BME280;42486;47.478;19.036;2023-03-18T02:51:00;100609.16;;;1.84;69.72
56604;BME280;42486;47.478;19.036;2023-03-18T02:54:06;100610.19;;;1.79;70.81
56604;BME280;42486;47.478;19.036;2023-03-18T02:57:09;100620.78;;;1.69;68.88
56604;BME280;42486;47.478;19.036;2023-03-18T03:00:11;100626.87;;;1.67;70.58
56604;BME280;42486;47.478;19.036;2023-03-18T03:03:14;100614.16;;;1.62;68.95
56604;BME280;42486;47.478;19.036;2023-03-18T03:06:17;100614.31;;;1.58;70.17
56604;BME280;42486;47.478;19.036;2023-03-18T03:09:20;100618.91;;;1.48;70.89
56604;BME280;42486;47.478;19.036;2023-03-18T03:12:23;100616.56;;;1.40;70.20
56604;BME280;42486;47.478;19.036;2023-03-18T03:15:26;100609.78;;;1.38;72.50
56604;BME280;42486;47.478;19.036;2023-03-18T03:18:29;100617.41;;;1.41;72.06
56604;BME280;42486;47.478;19.036;2023-03-18T03:21:32;100616.78;;;1.34;71.81
56604;BME280;42486;47.478;19.036;2023-03-18T03:24:46;100611.81;;;1.28;69.87
56604;BME280;42486;47.478;19.036;2023-03-18T03:27:48;100615.16;;;1.30;72.05
56604;BME280;42486;47.478;19.036;2023-03-18T03:30:51;100627.19;;;1.29;72.63
56604;BME280;42486;47.478;19.036;2023-03-18T03:33:54;100621.84;;;1.36;71.36
56604;BME280;42486;47.478;19.036;2023-03-18T03:36:57;100622.84;;;1.31;70.99
56604;BME280;42486;47.478;19.036;2023-03-18T03:40:00;100624.81;;;1.23;71.53
56604;BME280;42486;47.478;19.036;2023-03-18T03:43:03;100631.94;;;1.15;72.49
56604;BME280;42486;47.478;19.036;2023-03-18T03:46:07;100631.25;;;1.08;72.09
56604;BME280;42486;47.478;19.036;2023-03-18T03:49:10;100633.44;;;0.93;71.89
56604;BME280;42486;47.478;19.036;2023-03-18T03:52:13;100635.41;;;0.84;73.11
56604;BME280;42486;47.478;19.036;2023-03-18T03:55:17;100634.34;;;0.92;72.54
56604;BME280;42486;47.478;19.036;2023-03-18T03:58:20;100637.00;;;0.88;73.76
56604;BME280;42486;47.478;19.036;2023-03-18T04:01:23;100636.34;;;0.82;72.62
56604;BME280;42486;47.478;19.036;2023-03-18T04:04:26;100638.97;;;0.80;73.85
56604;BME280;42486;47.478;19.036;2023-03-18T04:07:28;100629.50;;;0.81;73.99
56604;BME280;42486;47.478;19.036;2023-03-18T04:10:31;100632.22;;;0.76;73.17
56604;BME280;42486;47.478;19.036;2023-03-18T04:13:35;100635.00;;;0.98;70.84
56604;BME280;42486;47.478;19.036;2023-03-18T04:16:38;100638.44;;;0.99;70.67
56604;BME280;42486;47.478;19.036;2023-03-18T04:19:41;100641.13;;;0.94;72.86
56604;BME280;42486;47.478;19.036;2023-03-18T04:22:44;100639.47;;;0.93;73.69
56604;BME280;42486;47.478;19.036;2023-03-18T04:25:47;100642.78;;;0.97;70.94
56604;BME280;42486;47.478;19.036;2023-03-18T04:28:49;100639.91;;;1.06;71.14
56604;BME280;42486;47.478;19.036;2023-03-18T04:31:53;100636.56;;;1.04;71.61
56604;BME280;42486;47.478;19.036;2023-03-18T04:34:58;100642.91;;;0.92;72.42
56604;BME280;42486;47.478;19.036;2023-03-18T04:38:00;100644.66;;;0.90;73.07
56604;BME280;42486;47.478;19.036;2023-03-18T04:41:04;100646.41;;;0.90;73.10
56604;BME280;42486;47.478;19.036;2023-03-18T04:44:08;100649.19;;;0.82;73.42
56604;BME280;42486;47.478;19.036;2023-03-18T04:47:11;100655.31;;;0.78;72.38
56604;BME280;42486;47.478;19.036;2023-03-18T04:50:15;100650.28;;;0.75;73.07
56604;BME280;42486;47.478;19.036;2023-03-18T04:53:19;100657.75;;;0.82;73.09
56604;BME280;42486;47.478;19.036;2023-03-18T04:56:22;100661.97;;;0.85;73.04
56604;BME280;42486;47.478;19.036;2023-03-18T04:59:25;100665.03;;;0.98;72.89
56604;BME280;42486;47.478;19.036;2023-03-18T05:02:28;100670.03;;;1.02;71.75
56604;BME280;42486;47.478;19.036;2023-03-18T05:05:31;100668.31;;;1.03;72.00
56604;BME280;42486;47.478;19.036;2023-03-18T05:08:39;100670.53;;;1.15;72.67
56604;BME280;42486;47.478;19.036;2023-03-18T05:11:42;100675.47;;;1.23;69.88
56604;BME280;42486;47.478;19.036;2023-03-18T05:14:44;100667.56;;;1.27;70.02
56604;BME280;42486;47.478;19.036;2023-03-18T05:17:47;100675.91;;;1.36;69.89
56604;BME280;42486;47.478;19.036;2023-03-18T05:20:50;100672.34;;;1.41;68.93
56604;BME280;42486;47.478;19.036;2023-03-18T05:23:53;100689.78;;;1.60;70.16
56604;BME280;42486;47.478;19.036;2023-03-18T05:26:57;100691.84;;;1.75;67.20
56604;BME280;42486;47.478;19.036;2023-03-18T05:30:00;100683.19;;;1.77;65.64
56604;BME280;42486;47.478;19.036;2023-03-18T05:33:04;100692.19;;;1.92;66.32
56604;BME280;42486;47.478;19.036;2023-03-18T05:36:07;100685.78;;;2.04;66.92
56604;BME280;42486;47.478;19.036;2023-03-18T05:39:10;100691.63;;;2.09;64.93
56604;BME280;42486;47.478;19.036;2023-03-18T05:42:14;100695.72;;;2.15;64.77
56604;BME280;42486;47.478;19.036;2023-03-18T05:45:19;100699.69;;;2.25;65.18
56604;BME280;42486;47.478;19.036;2023-03-18T05:48:22;100692.53;;;2.33;64.79
56604;BME280;42486;47.478;19.036;2023-03-18T05:51:26;100698.25;;;2.41;64.60
56604;BME280;42486;47.478;19.036;2023-03-18T05:54:31;100705.09;;;2.68;62.85
56604;BME280;42486;47.478;19.036;2023-03-18T05:57:34;100705.56;;;2.79;62.47
56604;BME280;42486;47.478;19.036;2023-03-18T06:00:38;100707.84;;;3.34;60.30
56604;BME280;42486;47.478;19.036;2023-03-18T06:03:41;100707.47;;;3.88;58.00
56604;BME280;42486;47.478;19.036;2023-03-18T06:06:45;100715.31;;;5.27;53.55
56604;BME280;42486;47.478;19.036;2023-03-18T06:09:50;100715.66;;;5.38;51.44
56604;BME280;42486;47.478;19.036;2023-03-18T06:12:59;100711.25;;;5.77;51.25
56604;BME280;42486;47.478;19.036;2023-03-18T06:16:02;100717.69;;;5.50;52.74
56604;BME280;42486;47.478;19.036;2023-03-18T06:19:06;100722.81;;;7.09;46.35
56604;BME280;42486;47.478;19.036;2023-03-18T06:22:11;100725.06;;;7.15;46.09
56604;BME280;42486;47.478;19.036;2023-03-18T06:25:16;100725.56;;;8.01;43.98
56604;BME280;42486;47.478;19.036;2023-03-18T06:28:20;100735.13;;;8.60;42.88
56604;BME280;42486;47.478;19.036;2023-03-18T06:31:23;100743.53;;;7.89;43.96
56604;BME280;42486;47.478;19.036;2023-03-18T06:34:26;100736.66;;;7.25;46.91
56604;BME280;42486;47.478;19.036;2023-03-18T06:37:30;100728.97;;;6.90;45.96
56604;BME280;42486;47.478;19.036;2023-03-18T06:40:34;100732.06;;;6.64;49.09
56604;BME280;42486;47.478;19.036;2023-03-18T06:43:37;100741.87;;;6.41;50.26
56604;BME280;42486;47.478;19.036;2023-03-18T06:46:40;100746.72;;;5.95;48.91
56604;BME280;42486;47.478;19.036;2023-03-18T06:49:45;100738.72;;;6.69;49.29
56604;BME280;42486;47.478;19.036;2023-03-18T06:52:50;100748.81;;;6.91;46.91
56604;BME280;42486;47.478;19.036;2023-03-18T06:55:53;100754.12;;;6.72;49.33
56604;BME280;42486;47.478;19.036;2023-03-18T06:58:58;100757.53;;;6.57;46.95
56604;BME280;42486;47.478;19.036;2023-03-18T07:02:03;100762.59;;;7.58;47.52
56604;BME280;42486;47.478;19.036;2023-03-18T07:05:06;100761.59;;;9.12;43.09
56604;BME280;42486;47.478;19.036;2023-03-18T07:08:10;100755.56;;;9.67;41.86
56604;BME280;42486;47.478;19.036;2023-03-18T07:11:13;100765.13;;;9.81;40.53
56604;BME280;42486;47.478;19.036;2023-03-18T07:14:16;100761.12;;;9.19;42.14
56604;BME280;42486;47.478;19.036;2023-03-18T07:17:20;100760.38;;;9.03;42.54
56604;BME280;42486;47.478;19.036;2023-03-18T07:20:24;100762.44;;;11.00;39.02
56604;BME280;42486;47.478;19.036;2023-03-18T07:23:26;100777.16;;;12.60;34.62
56604;BME280;42486;47.478;19.036;2023-03-18T07:26:30;100776.19;;;12.50;34.60
56604;BME280;42486;47.478;19.036;2023-03-18T07:29:33;100776.31;;;13.17;33.15
56604;BME280;42486;47.478;19.036;2023-03-18T07:32:36;100774.44;;;11.41;36.07
56604;BME280;42486;47.478;19.036;2023-03-18T07:35:40;100764.53;;;9.90;38.52
56604;BME280;42486;47.478;19.036;2023-03-18T07:38:43;100771.00;;;8.86;42.41
56604;BME280;42486;47.478;19.036;2023-03-18T07:41:46;100769.69;;;8.48;43.25
56604;BME280;42486;47.478;19.036;2023-03-18T07:44:51;100771.41;;;7.87;43.69
56604;BME280;42486;47.478;19.036;2023-03-18T07:47:54;100776.81;;;8.14;43.38
56604;BME280;42486;47.478;19.036;2023-03-18T07:50:58;100780.91;;;8.19;43.68
56604;BME280;42486;47.478;19.036;2023-03-18T07:54:02;100784.88;;;8.10;44.42
56604;BME280;42486;47.478;19.036;2023-03-18T07:57:06;100777.44;;;7.88;45.19
56604;BME280;42486;47.478;19.036;2023-03-18T08:00:10;100777.03;;;7.80;43.88
56604;BME280;42486;47.478;19.036;2023-03-18T08:03:14;100777.34;;;7.73;44.36
56604;BME280;42486;47.478;19.036;2023-03-18T08:06:18;100781.53;;;7.92;44.67
56604;BME280;42486;47.478;19.036;2023-03-18T08:09:21;100796.22;;;8.09;44.16
56604;BME280;42486;47.478;19.036;2023-03-18T08:12:24;100780.88;;;8.34;43.86
56604;BME280;42486;47.478;19.036;2023-03-18T08:15:34;100782.28;;;8.56;43.21
56604;BME280;42486;47.478;19.036;2023-03-18T08:18:37;100782.25;;;8.86;42.78
56604;BME280;42486;47.478;19.036;2023-03-18T08:21:40;100772.66;;;8.72;43.34
56604;BME280;42486;47.478;19.036;2023-03-18T08:24:45;100774.69;;;8.96;43.56
56604;BME280;42486;47.478;19.036;2023-03-18T08:27:49;100769.88;;;8.90;43.38
56604;BME280;42486;47.478;19.036;2023-03-18T08:30:53;100772.56;;;8.88;42.60
56604;BME280;42486;47.478;19.036;2023-03-18T08:33:57;100768.97;;;9.05;41.51
56604;BME280;42486;47.478;19.036;2023-03-18T08:37:02;100767.06;;;9.36;42.04
56604;BME280;42486;47.478;19.036;2023-03-18T08:40:06;100771.53;;;9.48;40.99
56604;BME280;42486;47.478;19.036;2023-03-18T08:43:11;100761.75;;;9.37;41.31
56604;BME280;42486;47.478;19.036;2023-03-18T08:46:15;100760.47;;;9.44;42.35
56604;BME280;42486;47.478;19.036;2023-03-18T08:49:20;100758.84;;;9.56;40.87
56604;BME280;42486;47.478;19.036;2023-03-18T08:52:24;100761.84;;;9.50;42.15
56604;BME280;42486;47.478;19.036;2023-03-18T08:55:29;100756.78;;;9.61;42.86
56604;BME280;42486;47.478;19.036;2023-03-18T08:58:34;100759.84;;;9.68;41.61
56604;BME280;42486;47.478;19.036;2023-03-18T09:01:38;100760.44;;;9.86;42.14
56604;BME280;42486;47.478;19.036;2023-03-18T09:04:42;100758.50;;;10.02;41.57
56604;BME280;42486;47.478;19.036;2023-03-18T09:07:46;100762.13;;;10.14;40.36
56604;BME280;42486;47.478;19.036;2023-03-18T09:10:52;100762.44;;;10.22;39.22
56604;BME280;42486;47.478;19.036;2023-03-18T09:13:56;100754.38;;;10.12;39.36
56604;BME280;42486;47.478;19.036;2023-03-18T09:16:59;100758.63;;;10.01;39.81
56604;BME280;42486;47.478;19.036;2023-03-18T09:20:03;100753.50;;;9.99;39.48
56604;BME280;42486;47.478;19.036;2023-03-18T09:23:07;100754.00;;;10.19;39.81
56604;BME280;42486;47.478;19.036;2023-03-18T09:26:11;100744.44;;;10.32;39.12
56604;BME280;42486;47.478;19.036;2023-03-18T09:29:15;100748.31;;;10.52;39.25
56604;BME280;42486;47.478;19.036;2023-03-18T09:32:21;100747.50;;;10.51;40.03
56604;BME280;42486;47.478;19.036;2023-03-18T09:35:24;100750.00;;;10.53;40.04
56604;BME280;42486;47.478;19.036;2023-03-18T09:38:27;100746.66;;;10.76;39.69
56604;BME280;42486;47.478;19.036;2023-03-18T09:41:41;100742.41;;;10.88;40.22
56604;BME280;42486;47.478;19.036;2023-03-18T09:44:53;100735.06;;;10.93;38.76
56604;BME280;42486;47.478;19.036;2023-03-18T09:48:24;100731.72;;;11.04;39.67
56604;BME280;42486;47.478;19.036;2023-03-18T09:51:42;100729.50;;;11.11;39.24
56604;BME280;42486;47.478;19.036;2023-03-18T09:57:59;100721.63;;;11.23;39.10
56604;BME280;42486;47.478;19.036;2023-03-18T10:01:05;100724.31;;;11.35;40.18
56604;BME280;42486;47.478;19.036;2023-03-18T10:07:23;100725.94;;;11.49;37.93
56604;BME280;42486;47.478;19.036;2023-03-18T10:10:33;100717.22;;;11.61;38.98
56604;BME280;42486;47.478;19.036;2023-03-18T10:13:41;100716.19;;;11.87;40.49
56604;BME280;42486;47.478;19.036;2023-03-18T10:20:22;100720.19;;;11.80;37.86
56604;BME280;42486;47.478;19.036;2023-03-18T10:23:34;100714.84;;;11.82;38.68
56604;BME280;42486;47.478;19.036;2023-03-18T10:26:42;100715.22;;;12.12;37.27
56604;BME280;42486;47.478;19.036;2023-03-18T10:39:25;100706.72;;;12.33;35.70
56604;BME280;42486;47.478;19.036;2023-03-18T10:42:29;100708.31;;;12.58;36.54
56604;BME280;42486;47.478;19.036;2023-03-18T10:45:34;100709.25;;;12.68;34.61
56604;BME280;42486;47.478;19.036;2023-03-18T10:48:42;100711.31;;;12.65;35.95
56604;BME280;42486;47.478;19.036;2023-03-18T10:51:54;100701.53;;;12.55;35.93
56604;BME280;42486;47.478;19.036;2023-03-18T10:55:00;100715.06;;;12.38;35.43
56604;BME280;42486;47.478;19.036;2023-03-18T10:58:14;100692.81;;;12.55;35.68
56604;BME280;42486;47.478;19.036;2023-03-18T11:01:17;100691.16;;;12.76;35.99
56604;BME280;42486;47.478;19.036;2023-03-18T11:04:24;100686.25;;;13.06;36.52
56604;BME280;42486;47.478;19.036;2023-03-18T11:07:30;100673.63;;;13.22;35.89
56604;BME280;42486;47.478;19.036;2023-03-18T11:10:35;100674.72;;;13.19;36.76
56604;BME280;42486;47.478;19.036;2023-03-18T11:13:46;100671.22;;;13.41;36.89
56604;BME280;42486;47.478;19.036;2023-03-18T11:17:01;100666.28;;;13.48;37.07
56604;BME280;42486;47.478;19.036;2023-03-18T11:20:18;100670.16;;;13.10;35.92
56604;BME280;42486;47.478;19.036;2023-03-18T11:23:31;100655.62;;;13.29;35.58
56604;BME280;42486;47.478;19.036;2023-03-18T11:26:55;100658.47;;;13.37;36.63
56604;BME280;42486;47.478;19.036;2023-03-18T11:29:59;100658.41;;;13.59;35.84
56604;BME280;42486;47.478;19.036;2023-03-18T11:33:11;100650.22;;;13.74;35.37
56604;BME280;42486;47.478;19.036;2023-03-18T11:36:16;100647.03;;;13.70;35.71
56604;BME280;42486;47.478;19.036;2023-03-18T11:39:24;100641.44;;;13.63;36.22
56604;BME280;42486;47.478;19.036;2023-03-18T11:42:30;100633.84;;;13.49;36.38
56604;BME280;42486;47.478;19.036;2023-03-18T11:48:47;100634.31;;;13.54;37.34
56604;BME280;42486;47.478;19.036;2023-03-18T11:52:00;100640.56;;;13.42;36.52
56604;BME280;42486;47.478;19.036;2023-03-18T11:55:10;100625.00;;;13.07;36.85
56604;BME280;42486;47.478;19.036;2023-03-18T12:04:50;100623.81;;;13.54;35.71
56604;BME280;42486;47.478;19.036;2023-03-18T12:14:26;100620.00;;;13.79;34.38
56604;BME280;42486;47.478;19.036;2023-03-18T12:30:13;100602.97;;;13.95;34.13
56604;BME280;42486;47.478;19.036;2023-03-18T12:37:47;100602.25;;;14.14;34.07
56604;BME280;42486;47.478;19.036;2023-03-18T12:46:43;100601.53;;;13.91;34.84
56604;BME280;42486;47.478;19.036;2023-03-18T12:56:11;100604.13;;;13.81;34.96
56604;BME280;42486;47.478;19.036;2023-03-18T12:59:23;100599.87;;;13.69;37.25
56604;BME280;42486;47.478;19.036;2023-03-18T13:02:36;100595.66;;;13.77;36.84
56604;BME280;42486;47.478;19.036;2023-03-18T13:09:34;100584.75;;;13.61;37.04
56604;BME280;42486;47.478;19.036;2023-03-18T13:12:41;100583.50;;;13.76;36.92
56604;BME280;42486;47.478;19.036;2023-03-18T13:15:48;100585.94;;;13.68;36.97
56604;BME280;42486;47.478;19.036;2023-03-18T13:18:54;100589.31;;;13.80;37.00
56604;BME280;42486;47.478;19.036;2023-03-18T13:38:55;100582.78;;;13.10;39.23
56604;BME280;42486;47.478;19.036;2023-03-18T13:42:20;100582.28;;;13.16;38.43
56604;BME280;42486;47.478;19.036;2023-03-18T13:45:26;100568.91;;;13.19;38.83
56604;BME280;42486;47.478;19.036;2023-03-18T13:48:31;100573.28;;;13.41;38.16
56604;BME280;42486;47.478;19.036;2023-03-18T13:54:39;100569.13;;;13.38;38.63
56604;BME280;42486;47.478;19.036;2023-03-18T13:57:47;100568.41;;;13.36;37.52
56604;BME280;42486;47.478;19.036;2023-03-18T14:07:21;100553.47;;;13.37;37.23
56604;BME280;42486;47.478;19.036;2023-03-18T14:10:25;100556.47;;;13.43;37.33
56604;BME280;42486;47.478;19.036;2023-03-18T14:13:29;100549.66;;;13.41;38.64
56604;BME280;42486;47.478;19.036;2023-03-18T14:19:40;100543.44;;;13.42;38.74
56604;BME280;42486;47.478;19.036;2023-03-18T14:22:46;100539.47;;;13.48;39.39
56604;BME280;42486;47.478;19.036;2023-03-18T14:25:58;100535.66;;;13.52;39.20
56604;BME280;42486;47.478;19.036;2023-03-18T14:35:33;100519.50;;;13.35;38.96
56604;BME280;42486;47.478;19.036;2023-03-18T14:38:39;100512.94;;;13.41;38.94
56604;BME280;42486;47.478;19.036;2023-03-18T14:41:46;100508.16;;;13.35;37.92
56604;BME280;42486;47.478;19.036;2023-03-18T14:44:53;100515.72;;;13.28;38.41
56604;BME280;42486;47.478;19.036;2023-03-18T14:47:57;100512.59;;;13.23;37.85
56604;BME280;42486;47.478;19.036;2023-03-18T14:51:12;100517.41;;;13.18;38.13
56604;BME280;42486;47.478;19.036;2023-03-18T14:54:18;100509.28;;;13.21;38.24
56604;BME280;42486;47.478;19.036;2023-03-18T14:57:23;100511.31;;;13.17;37.87
56604;BME280;42486;47.478;19.036;2023-03-18T15:00:27;100510.50;;;13.17;37.53
56604;BME280;42486;47.478;19.036;2023-03-18T15:03:33;100517.97;;;13.21;37.06
56604;BME280;42486;47.478;19.036;2023-03-18T15:06:38;100513.69;;;13.20;37.13
56604;BME280;42486;47.478;19.036;2023-03-18T15:09:42;100507.13;;;13.26;38.23
56604;BME280;42486;47.478;19.036;2023-03-18T15:12:59;100505.34;;;13.27;39.30
56604;BME280;42486;47.478;19.036;2023-03-18T15:16:02;100506.06;;;13.17;38.10
56604;BME280;42486;47.478;19.036;2023-03-18T15:19:09;100511.53;;;13.26;38.67
56604;BME280;42486;47.478;19.036;2023-03-18T15:22:19;100501.53;;;13.19;38.02
56604;BME280;42486;47.478;19.036;2023-03-18T15:25:27;100501.91;;;13.15;37.96
56604;BME280;42486;47.478;19.036;2023-03-18T15:28:31;100497.63;;;13.14;39.92
56604;BME280;42486;47.478;19.036;2023-03-18T15:31:41;100498.56;;;13.13;40.35
56604;BME280;42486;47.478;19.036;2023-03-18T15:34:49;100493.84;;;13.07;39.78
56604;BME280;42486;47.478;19.036;2023-03-18T15:38:02;100503.88;;;13.02;40.25
56604;BME280;42486;47.478;19.036;2023-03-18T15:41:05;100501.28;;;12.90;40.85
56604;BME280;42486;47.478;19.036;2023-03-18T15:44:12;100506.34;;;12.82;40.53
56604;BME280;42486;47.478;19.036;2023-03-18T15:47:20;100505.16;;;12.75;41.28
56604;BME280;42486;47.478;19.036;2023-03-18T15:50:28;100510.66;;;12.72;42.43
56604;BME280;42486;47.478;19.036;2023-03-18T15:53:40;100506.50;;;12.58;41.74
56604;BME280;42486;47.478;19.036;2023-03-18T15:56:45;100514.84;;;12.52;42.49
56604;BME280;42486;47.478;19.036;2023-03-18T15:59:50;100516.41;;;12.43;42.65
56604;BME280;42486;47.478;19.036;2023-03-18T16:02:54;100514.28;;;12.37;43.19
56604;BME280;42486;47.478;19.036;2023-03-18T16:05:58;100515.44;;;12.33;44.00
56604;BME280;42486;47.478;19.036;2023-03-18T16:09:11;100517.00;;;12.24;43.77
56604;BME280;42486;47.478;19.036;2023-03-18T16:12:18;100521.06;;;12.17;43.68
56604;BME280;42486;47.478;19.036;2023-03-18T16:15:23;100526.88;;;12.09;44.06
56604;BME280;42486;47.478;19.036;2023-03-18T16:18:27;100525.56;;;12.04;44.51
56604;BME280;42486;47.478;19.036;2023-03-18T16:21:30;100524.38;;;11.97;44.81
56604;BME280;42486;47.478;19.036;2023-03-18T16:24:32;100532.09;;;11.87;44.70
56604;BME280;42486;47.478;19.036;2023-03-18T16:27:39;100528.59;;;11.75;45.43
56604;BME280;42486;47.478;19.036;2023-03-18T16:30:43;100524.78;;;11.68;46.69
56604;BME280;42486;47.478;19.036;2023-03-18T16:33:48;100528.72;;;11.62;46.46
56604;BME280;42486;47.478;19.036;2023-03-18T16:36:54;100524.87;;;11.55;45.73
56604;BME280;42486;47.478;19.036;2023-03-18T16:39:58;100532.13;;;11.52;45.88
56604;BME280;42486;47.478;19.036;2023-03-18T16:43:02;100527.47;;;11.44;46.14
56604;BME280;42486;47.478;19.036;2023-03-18T16:46:09;100524.94;;;11.42;46.14
56604;BME280;42486;47.478;19.036;2023-03-18T16:49:14;100530.75;;;11.35;46.93
56604;BME280;42486;47.478;19.036;2023-03-18T16:52:20;100527.88;;;11.27;47.15
56604;BME280;42486;47.478;19.036;2023-03-18T16:55:23;100532.22;;;11.15;46.99
56604;BME280;42486;47.478;19.036;2023-03-18T16:58:29;100535.28;;;11.09;47.40
56604;BME280;42486;47.478;19.036;2023-03-18T17:01:37;100535.66;;;10.91;47.96
56604;BME280;42486;47.478;19.036;2023-03-18T17:04:45;100536.31;;;10.82;48.14
56604;BME280;42486;47.478;19.036;2023-03-18T17:07:49;100535.47;;;10.82;48.80
56604;BME280;42486;47.478;19.036;2023-03-18T17:10:53;100534.38;;;10.73;49.69
56604;BME280;42486;47.478;19.036;2023-03-18T17:13:58;100537.00;;;10.60;48.78
56604;BME280;42486;47.478;19.036;2023-03-18T17:17:04;100542.78;;;10.52;49.47
56604;BME280;42486;47.478;19.036;2023-03-18T17:20:16;100543.53;;;10.42;49.50
56604;BME280;42486;47.478;19.036;2023-03-18T17:23:25;100542.59;;;10.43;50.32
56604;BME280;42486;47.478;19.036;2023-03-18T17:26:31;100542.59;;;10.43;50.00
56604;BME280;42486;47.478;19.036;2023-03-18T17:29:34;100540.19;;;10.27;50.28
56604;BME280;42486;47.478;19.036;2023-03-18T17:32:38;100541.34;;;10.10;50.79
56604;BME280;42486;47.478;19.036;2023-03-18T17:35:42;100542.16;;;10.10;51.00
56604;BME280;42486;47.478;19.036;2023-03-18T17:38:45;100548.56;;;10.06;52.23
56604;BME280;42486;47.478;19.036;2023-03-18T17:41:50;100547.19;;;10.01;51.78
56604;BME280;42486;47.478;19.036;2023-03-18T17:44:52;100548.25;;;9.98;51.88
56604;BME280;42486;47.478;19.036;2023-03-18T17:51:18;100551.16;;;9.81;52.33
56604;BME280;42486;47.478;19.036;2023-03-18T17:54:24;100549.91;;;9.74;52.87
56604;BME280;42486;47.478;19.036;2023-03-18T17:57:29;100545.28;;;9.64;53.13